Aviation Digital Data Service (ADDS)

Output produced by METARs form (0841 UTC 24 March 2019)
found at http://www.aviationweather.gov/metar/data/
 
METAR text: RKTN 240800Z 29003KT CAVOK 13/M10 Q1017
Conditions at: RKTN (TAEGU (US/KOR-AF, KR) observed 0800 UTC 24 March 2019
Temperature: 13.0°C (55°F)
Dewpoint: -10.0°C (14°F) [RH = 19%]
Pressure (altimeter): 30.03 inches Hg (1017.0 mb)
Winds: from the WNW (290 degrees) at 3 MPH (3 knots; 1.5 m/s)
Visibility: 6 or more miles (10+ km)
Ceiling: ceiling and visibility are OK
Clouds: unknown
Weather: no significant weather observed at this time

METAR text: RKTN 240700Z 32010KT CAVOK 13/M10 Q1017
Conditions at: RKTN (TAEGU (US/KOR-AF, KR) observed 0700 UTC 24 March 2019
Temperature: 13.0°C (55°F)
Dewpoint: -10.0°C (14°F) [RH = 19%]
Pressure (altimeter): 30.03 inches Hg (1017.0 mb)
Winds: from the NW (320 degrees) at 12 MPH (10 knots; 5.1 m/s)
Visibility: 6 or more miles (10+ km)
Ceiling: ceiling and visibility are OK
Clouds: unknown
Weather: no significant weather observed at this time

METAR text: RKTN 240600Z 31009KT CAVOK 12/M11 Q1018
Conditions at: RKTN (TAEGU (US/KOR-AF, KR) observed 0600 UTC 24 March 2019
Temperature: 12.0°C (54°F)
Dewpoint: -11.0°C (12°F) [RH = 19%]
Pressure (altimeter): 30.06 inches Hg (1018.0 mb)
Winds: from the NW (310 degrees) at 10 MPH (9 knots; 4.6 m/s)
Visibility: 6 or more miles (10+ km)
Ceiling: ceiling and visibility are OK
Clouds: unknown
Weather: no significant weather observed at this time

METAR text: RKTN 240500Z 31006KT CAVOK 11/M11 Q1019
Conditions at: RKTN (TAEGU (US/KOR-AF, KR) observed 0500 UTC 24 March 2019
Temperature: 11.0°C (52°F)
Dewpoint: -11.0°C (12°F) [RH = 20%]
Pressure (altimeter): 30.09 inches Hg (1019.0 mb)
Winds: from the NW (310 degrees) at 7 MPH (6 knots; 3.1 m/s)
Visibility: 6 or more miles (10+ km)
Ceiling: ceiling and visibility are OK
Clouds: unknown
Weather: no significant weather observed at this time

METAR text: RKTN 240400Z 30007KT CAVOK 10/M10 Q1020
Conditions at: RKTN (TAEGU (US/KOR-AF, KR) observed 0400 UTC 24 March 2019
Temperature: 10.0°C (50°F)
Dewpoint: -10.0°C (14°F) [RH = 23%]
Pressure (altimeter): 30.12 inches Hg (1020.0 mb)
Winds: from the WNW (300 degrees) at 8 MPH (7 knots; 3.6 m/s)
Visibility: 6 or more miles (10+ km)
Ceiling: ceiling and visibility are OK
Clouds: unknown
Weather: no significant weather observed at this time

METAR text: RKTN 240300Z 29006KT CAVOK 09/M09 Q1022
Conditions at: RKTN (TAEGU (US/KOR-AF, KR) observed 0300 UTC 24 March 2019
Temperature: 9.0°C (48°F)
Dewpoint: -9.0°C (16°F) [RH = 27%]
Pressure (altimeter): 30.18 inches Hg (1022.0 mb)
Winds: from the WNW (290 degrees) at 7 MPH (6 knots; 3.1 m/s)
Visibility: 6 or more miles (10+ km)
Ceiling: ceiling and visibility are OK
Clouds: unknown
Weather: no significant weather observed at this time

METAR text: RKTN 240200Z 27007KT CAVOK 07/M08 Q1023
Conditions at: RKTN (TAEGU (US/KOR-AF, KR) observed 0200 UTC 24 March 2019
Temperature: 7.0°C (45°F)
Dewpoint: -8.0°C (18°F) [RH = 33%]
Pressure (altimeter): 30.21 inches Hg (1023.0 mb)
Winds: from the W (270 degrees) at 8 MPH (7 knots; 3.6 m/s)
Visibility: 6 or more miles (10+ km)
Ceiling: ceiling and visibility are OK
Clouds: unknown
Weather: no significant weather observed at this time

METAR text: RKTN 240100Z 28007KT CAVOK 06/M07 Q1023
Conditions at: RKTN (TAEGU (US/KOR-AF, KR) observed 0100 UTC 24 March 2019
Temperature: 6.0°C (43°F)
Dewpoint: -7.0°C (19°F) [RH = 39%]
Pressure (altimeter): 30.21 inches Hg (1023.0 mb)
Winds: from the W (280 degrees) at 8 MPH (7 knots; 3.6 m/s)
Visibility: 6 or more miles (10+ km)
Ceiling: ceiling and visibility are OK
Clouds: unknown
Weather: no significant weather observed at this time

METAR text: RKTN 240000Z 30007KT CAVOK 04/M06 Q1023
Conditions at: RKTN (TAEGU (US/KOR-AF, KR) observed 0000 UTC 24 March 2019
Temperature: 4.0°C (39°F)
Dewpoint: -6.0°C (21°F) [RH = 48%]
Pressure (altimeter): 30.21 inches Hg (1023.0 mb)
Winds: from the WNW (300 degrees) at 8 MPH (7 knots; 3.6 m/s)
Visibility: 6 or more miles (10+ km)
Ceiling: ceiling and visibility are OK
Clouds: unknown
Weather: no significant weather observed at this time

METAR text: RKTN 232300Z 33003KT CAVOK 01/M05 Q1023
Conditions at: RKTN (TAEGU (US/KOR-AF, KR) observed 2300 UTC 23 March 2019
Temperature: 1.0°C (34°F)
Dewpoint: -5.0°C (23°F) [RH = 64%]
Pressure (altimeter): 30.21 inches Hg (1023.0 mb)
Winds: from the NNW (330 degrees) at 3 MPH (3 knots; 1.5 m/s)
Visibility: 6 or more miles (10+ km)
Ceiling: ceiling and visibility are OK
Clouds: unknown
Weather: no significant weather observed at this time

METAR text: RKTN 232200Z 35002KT CAVOK M01/M06 Q1023 RMK SLP237
Conditions at: RKTN (TAEGU (US/KOR-AF, KR) observed 2200 UTC 23 March 2019
Temperature: -1.0°C (30°F)
Dewpoint: -6.0°C (21°F) [RH = 69%]
Pressure (altimeter): 30.21 inches Hg (1023.0 mb)
[Sea-level pressure: 1023.7 mb]
Winds: from the N (350 degrees) at 2 MPH (2 knots; 1.0 m/s)
Visibility: 6 or more miles (10+ km)
Ceiling: ceiling and visibility are OK
Clouds: unknown
Weather: no significant weather observed at this time

METAR text: RKTN 232100Z 35002KT CAVOK M01/M06 Q1023
Conditions at: RKTN (TAEGU (US/KOR-AF, KR) observed 2100 UTC 23 March 2019
Temperature: -1.0°C (30°F)
Dewpoint: -6.0°C (21°F) [RH = 69%]
Pressure (altimeter): 30.21 inches Hg (1023.0 mb)
Winds: from the N (350 degrees) at 2 MPH (2 knots; 1.0 m/s)
Visibility: 6 or more miles (10+ km)
Ceiling: ceiling and visibility are OK
Clouds: unknown
Weather: no significant weather observed at this time

METAR text: RKTN 232000Z 33001KT CAVOK M01/M05 Q1023
Conditions at: RKTN (TAEGU (US/KOR-AF, KR) observed 2000 UTC 23 March 2019
Temperature: -1.0°C (30°F)
Dewpoint: -5.0°C (23°F) [RH = 74%]
Pressure (altimeter): 30.21 inches Hg (1023.0 mb)
Winds: from the NNW (330 degrees) at 1 MPH (1 knots; 0.5 m/s)
Visibility: 6 or more miles (10+ km)
Ceiling: ceiling and visibility are OK
Clouds: unknown
Weather: no significant weather observed at this time

METAR text: RKTN 231900Z 33003KT CAVOK M02/M06 Q1022
Conditions at: RKTN (TAEGU (US/KOR-AF, KR) observed 1900 UTC 23 March 2019
Temperature: -2.0°C (28°F)
Dewpoint: -6.0°C (21°F) [RH = 74%]
Pressure (altimeter): 30.18 inches Hg (1022.0 mb)
Winds: from the NNW (330 degrees) at 3 MPH (3 knots; 1.5 m/s)
Visibility: 6 or more miles (10+ km)
Ceiling: ceiling and visibility are OK
Clouds: unknown
Weather: no significant weather observed at this time

METAR text: RKTN 231800Z 35003KT CAVOK M01/M05 Q1023
Conditions at: RKTN (TAEGU (US/KOR-AF, KR) observed 1800 UTC 23 March 2019
Temperature: -1.0°C (30°F)
Dewpoint: -5.0°C (23°F) [RH = 74%]
Pressure (altimeter): 30.21 inches Hg (1023.0 mb)
Winds: from the N (350 degrees) at 3 MPH (3 knots; 1.5 m/s)
Visibility: 6 or more miles (10+ km)
Ceiling: ceiling and visibility are OK
Clouds: unknown
Weather: no significant weather observed at this time

METAR text: RKTN 231700Z 34004KT CAVOK 00/M05 Q1023
Conditions at: RKTN (TAEGU (US/KOR-AF, KR) observed 1700 UTC 23 March 2019
Temperature: 0.0°C (32°F)
Dewpoint: -5.0°C (23°F) [RH = 69%]
Pressure (altimeter): 30.21 inches Hg (1023.0 mb)
Winds: from the NNW (340 degrees) at 5 MPH (4 knots; 2.1 m/s)
Visibility: 6 or more miles (10+ km)
Ceiling: ceiling and visibility are OK
Clouds: unknown
Weather: no significant weather observed at this time

METAR text: RKTN 231600Z 35003KT CAVOK 02/M05 Q1023
Conditions at: RKTN (TAEGU (US/KOR-AF, KR) observed 1600 UTC 23 March 2019
Temperature: 2.0°C (36°F)
Dewpoint: -5.0°C (23°F) [RH = 60%]
Pressure (altimeter): 30.21 inches Hg (1023.0 mb)
Winds: from the N (350 degrees) at 3 MPH (3 knots; 1.5 m/s)
Visibility: 6 or more miles (10+ km)
Ceiling: ceiling and visibility are OK
Clouds: unknown
Weather: no significant weather observed at this time

METAR text: RKTN 231500Z 31007KT CAVOK 02/M04 Q1022
Conditions at: RKTN (TAEGU (US/KOR-AF, KR) observed 1500 UTC 23 March 2019
Temperature: 2.0°C (36°F)
Dewpoint: -4.0°C (25°F) [RH = 64%]
Pressure (altimeter): 30.18 inches Hg (1022.0 mb)
Winds: from the NW (310 degrees) at 8 MPH (7 knots; 3.6 m/s)
Visibility: 6 or more miles (10+ km)
Ceiling: ceiling and visibility are OK
Clouds: unknown
Weather: no significant weather observed at this time

METAR text: RKTN 231400Z 33005KT CAVOK 02/M03 Q1022
Conditions at: RKTN (TAEGU (US/KOR-AF, KR) observed 1400 UTC 23 March 2019
Temperature: 2.0°C (36°F)
Dewpoint: -3.0°C (27°F) [RH = 69%]
Pressure (altimeter): 30.18 inches Hg (1022.0 mb)
Winds: from the NNW (330 degrees) at 6 MPH (5 knots; 2.6 m/s)
Visibility: 6 or more miles (10+ km)
Ceiling: ceiling and visibility are OK
Clouds: unknown
Weather: no significant weather observed at this time

METAR text: RKTN 231300Z 03004KT CAVOK 03/M01 Q1021 RMK SLP215
Conditions at: RKTN (TAEGU (US/KOR-AF, KR) observed 1300 UTC 23 March 2019
Temperature: 3.0°C (37°F)
Dewpoint: -1.0°C (30°F) [RH = 75%]
Pressure (altimeter): 30.15 inches Hg (1021.0 mb)
[Sea-level pressure: 1021.5 mb]
Winds: from the NNE (30 degrees) at 5 MPH (4 knots; 2.1 m/s)
Visibility: 6 or more miles (10+ km)
Ceiling: ceiling and visibility are OK
Clouds: unknown
Weather: no significant weather observed at this time

METAR text: RKTN 231200Z 29005KT 9999 FEW040 04/M02 Q1020
Conditions at: RKTN (TAEGU (US/KOR-AF, KR) observed 1200 UTC 23 March 2019
Temperature: 4.0°C (39°F)
Dewpoint: -2.0°C (28°F) [RH = 65%]
Pressure (altimeter): 30.12 inches Hg (1020.0 mb)
Winds: from the WNW (290 degrees) at 6 MPH (5 knots; 2.6 m/s)
Visibility: 6 or more miles (10+ km)
Ceiling: at least 12,000 feet AGL
Clouds: few clouds at 4000 feet AGL
Weather: no significant weather observed at this time

METAR text: RKTN 231100Z 29008KT 9999 SCT040 05/00 Q1019
Conditions at: RKTN (TAEGU (US/KOR-AF, KR) observed 1100 UTC 23 March 2019
Temperature: 5.0°C (41°F)
Dewpoint: 0.0°C (32°F) [RH = 70%]
Pressure (altimeter): 30.09 inches Hg (1019.0 mb)
Winds: from the WNW (290 degrees) at 9 MPH (8 knots; 4.1 m/s)
Visibility: 6 or more miles (10+ km)
Ceiling: at least 12,000 feet AGL
Clouds: scattered clouds at 4000 feet AGL
Weather: no significant weather observed at this time

METAR text: RKTN 231000Z 29007KT 9999 FEW030 SCT080 05/00 Q1018
Conditions at: RKTN (TAEGU (US/KOR-AF, KR) observed 1000 UTC 23 March 2019
Temperature: 5.0°C (41°F)
Dewpoint: 0.0°C (32°F) [RH = 70%]
Pressure (altimeter): 30.06 inches Hg (1018.0 mb)
Winds: from the WNW (290 degrees) at 8 MPH (7 knots; 3.6 m/s)
Visibility: 6 or more miles (10+ km)
Ceiling: at least 12,000 feet AGL
Clouds: few clouds at 3000 feet AGL
scattered clouds at 8000 feet AGL
Weather: no significant weather observed at this time

METAR text: RKTN 230900Z 29003KT 9999 SCT030 BKN080 05/01 Q1018
Conditions at: RKTN (TAEGU (US/KOR-AF, KR) observed 0900 UTC 23 March 2019
Temperature: 5.0°C (41°F)
Dewpoint: 1.0°C (34°F) [RH = 75%]
Pressure (altimeter): 30.06 inches Hg (1018.0 mb)
Winds: from the WNW (290 degrees) at 3 MPH (3 knots; 1.5 m/s)
Visibility: 6 or more miles (10+ km)
Ceiling: 8000 feet AGL
Clouds: scattered clouds at 3000 feet AGL
broken clouds at 8000 feet AGL
Weather: no significant weather observed at this time

METAR text: RKTN 230815Z 31012KT 6000 SCT020 BKN030 04/02 Q1018 RMK CIG030
Conditions at: RKTN (TAEGU (US/KOR-AF, KR) observed 0815 UTC 23 March 2019
Temperature: 4.0°C (39°F)
Dewpoint: 2.0°C (36°F) [RH = 87%]
Pressure (altimeter): 30.06 inches Hg (1018.0 mb)
Winds: from the NW (310 degrees) at 14 MPH (12 knots; 6.2 m/s)
Visibility: 4 miles ( 6 km)
Ceiling: 3000 feet AGL
Clouds: scattered clouds at 2000 feet AGL
broken clouds at 3000 feet AGL
Weather: no significant weather observed at this time

METAR text: RKTN 230800Z 32015G25KT 4000 -RA BR BKN020 OVC030 04/01 Q1019
Conditions at: RKTN (TAEGU (US/KOR-AF, KR) observed 0800 UTC 23 March 2019
Temperature: 4.0°C (39°F)
Dewpoint: 1.0°C (34°F) [RH = 81%]
Pressure (altimeter): 30.09 inches Hg (1019.0 mb)
Winds: from the NW (320 degrees) at 17 MPH (15 knots; 7.7 m/s)
gusting to 29 MPH (25 knots; 12.9 m/s)
Visibility: 2.49 miles (4.01 km)
Ceiling: 2000 feet AGL
Clouds: broken clouds at 2000 feet AGL
overcast cloud deck at 3000 feet AGL
Weather: -RA BR  (light rain, mist)

METAR text: RKTN 230738Z 31015G25KT 3200 -RA BR BKN015 OVC025 05/01 Q1019 RMK CIG015
Conditions at: RKTN (TAEGU (US/KOR-AF, KR) observed 0738 UTC 23 March 2019
Temperature: 5.0°C (41°F)
Dewpoint: 1.0°C (34°F) [RH = 75%]
Pressure (altimeter): 30.09 inches Hg (1019.0 mb)
Winds: from the NW (310 degrees) at 17 MPH (15 knots; 7.7 m/s)
gusting to 29 MPH (25 knots; 12.9 m/s)
Visibility: 1.99 miles (3.20 km)
Ceiling: 1500 feet AGL
Clouds: broken clouds at 1500 feet AGL
overcast cloud deck at 2500 feet AGL
Weather: -RA BR  (light rain, mist)

METAR text: RKTN 230705Z 30018KT 9999 -RA BKN040 OVC070 09/M04 Q1017 RMK CIG040
Conditions at: RKTN (TAEGU (US/KOR-AF, KR) observed 0705 UTC 23 March 2019
Temperature: 9.0°C (48°F)
Dewpoint: -4.0°C (25°F) [RH = 40%]
Pressure (altimeter): 30.03 inches Hg (1017.0 mb)
Winds: from the WNW (300 degrees) at 21 MPH (18 knots; 9.3 m/s)
Visibility: 6 or more miles (10+ km)
Ceiling: 4000 feet AGL
Clouds: broken clouds at 4000 feet AGL
overcast cloud deck at 7000 feet AGL
Weather: -RA  (light rain)

METAR text: RKTN 230700Z 31018KT 9999 SCT040 BKN080 11/M08 Q1016
Conditions at: RKTN (TAEGU (US/KOR-AF, KR) observed 0700 UTC 23 March 2019
Temperature: 11.0°C (52°F)
Dewpoint: -8.0°C (18°F) [RH = 25%]
Pressure (altimeter): 30.00 inches Hg (1016.0 mb)
Winds: from the NW (310 degrees) at 21 MPH (18 knots; 9.3 m/s)
Visibility: 6 or more miles (10+ km)
Ceiling: 8000 feet AGL
Clouds: scattered clouds at 4000 feet AGL
broken clouds at 8000 feet AGL
Weather: no significant weather observed at this time

METAR text: RKTN 230600Z 28013KT 9999 FEW040 BKN100 13/M12 Q1015
Conditions at: RKTN (TAEGU (US/KOR-AF, KR) observed 0600 UTC 23 March 2019
Temperature: 13.0°C (55°F)
Dewpoint: -12.0°C (10°F) [RH = 16%]
Pressure (altimeter): 29.97 inches Hg (1015.0 mb)
Winds: from the W (280 degrees) at 15 MPH (13 knots; 6.7 m/s)
Visibility: 6 or more miles (10+ km)
Ceiling: 10000 feet AGL
Clouds: few clouds at 4000 feet AGL
broken clouds at 10000 feet AGL
Weather: no significant weather observed at this time

METAR text: RKTN 230500Z 25007KT 9999 FEW040 SCT100 12/M13 Q1016
Conditions at: RKTN (TAEGU (US/KOR-AF, KR) observed 0500 UTC 23 March 2019
Temperature: 12.0°C (54°F)
Dewpoint: -13.0°C ( 9°F) [RH = 16%]
Pressure (altimeter): 30.00 inches Hg (1016.0 mb)
Winds: from the WSW (250 degrees) at 8 MPH (7 knots; 3.6 m/s)
Visibility: 6 or more miles (10+ km)
Ceiling: at least 12,000 feet AGL
Clouds: few clouds at 4000 feet AGL
scattered clouds at 10000 feet AGL
Weather: no significant weather observed at this time

METAR text: RKTN 230400Z 30007KT 9999 FEW040 11/M13 Q1018
Conditions at: RKTN (TAEGU (US/KOR-AF, KR) observed 0400 UTC 23 March 2019
Temperature: 11.0°C (52°F)
Dewpoint: -13.0°C ( 9°F) [RH = 17%]
Pressure (altimeter): 30.06 inches Hg (1018.0 mb)
Winds: from the WNW (300 degrees) at 8 MPH (7 knots; 3.6 m/s)
Visibility: 6 or more miles (10+ km)
Ceiling: at least 12,000 feet AGL
Clouds: few clouds at 4000 feet AGL
Weather: no significant weather observed at this time

METAR text: RKTN 230300Z 28010KT CAVOK 10/M13 Q1019
Conditions at: RKTN (TAEGU (US/KOR-AF, KR) observed 0300 UTC 23 March 2019
Temperature: 10.0°C (50°F)
Dewpoint: -13.0°C ( 9°F) [RH = 18%]
Pressure (altimeter): 30.09 inches Hg (1019.0 mb)
Winds: from the W (280 degrees) at 12 MPH (10 knots; 5.1 m/s)
Visibility: 6 or more miles (10+ km)
Ceiling: ceiling and visibility are OK
Clouds: unknown
Weather: no significant weather observed at this time

METAR text: RKTN 230200Z 32011KT CAVOK 09/M12 Q1020
Conditions at: RKTN (TAEGU (US/KOR-AF, KR) observed 0200 UTC 23 March 2019
Temperature: 9.0°C (48°F)
Dewpoint: -12.0°C (10°F) [RH = 21%]
Pressure (altimeter): 30.12 inches Hg (1020.0 mb)
Winds: from the NW (320 degrees) at 13 MPH (11 knots; 5.7 m/s)
Visibility: 6 or more miles (10+ km)
Ceiling: ceiling and visibility are OK
Clouds: unknown
Weather: no significant weather observed at this time

METAR text: RKTN 230100Z 27007KT CAVOK 07/M10 Q1021
Conditions at: RKTN (TAEGU (US/KOR-AF, KR) observed 0100 UTC 23 March 2019
Temperature: 7.0°C (45°F)
Dewpoint: -10.0°C (14°F) [RH = 29%]
Pressure (altimeter): 30.15 inches Hg (1021.0 mb)
Winds: from the W (270 degrees) at 8 MPH (7 knots; 3.6 m/s)
Visibility: 6 or more miles (10+ km)
Ceiling: ceiling and visibility are OK
Clouds: unknown
Weather: no significant weather observed at this time

METAR text: RKTN 230000Z 27005KT CAVOK 06/M08 Q1021
Conditions at: RKTN (TAEGU (US/KOR-AF, KR) observed 0000 UTC 23 March 2019
Temperature: 6.0°C (43°F)
Dewpoint: -8.0°C (18°F) [RH = 36%]
Pressure (altimeter): 30.15 inches Hg (1021.0 mb)
Winds: from the W (270 degrees) at 6 MPH (5 knots; 2.6 m/s)
Visibility: 6 or more miles (10+ km)
Ceiling: ceiling and visibility are OK
Clouds: unknown
Weather: no significant weather observed at this time

METAR text: RKTN 222300Z 31006KT CAVOK 04/M07 Q1022
Conditions at: RKTN (TAEGU (US/KOR-AF, KR) observed 2300 UTC 22 March 2019
Temperature: 4.0°C (39°F)
Dewpoint: -7.0°C (19°F) [RH = 44%]
Pressure (altimeter): 30.18 inches Hg (1022.0 mb)
Winds: from the NW (310 degrees) at 7 MPH (6 knots; 3.1 m/s)
Visibility: 6 or more miles (10+ km)
Ceiling: ceiling and visibility are OK
Clouds: unknown
Weather: no significant weather observed at this time

METAR text: RKTN 222200Z 31007KT CAVOK 03/M08 Q1022
Conditions at: RKTN (TAEGU (US/KOR-AF, KR) observed 2200 UTC 22 March 2019
Temperature: 3.0°C (37°F)
Dewpoint: -8.0°C (18°F) [RH = 44%]
Pressure (altimeter): 30.18 inches Hg (1022.0 mb)
Winds: from the NW (310 degrees) at 8 MPH (7 knots; 3.6 m/s)
Visibility: 6 or more miles (10+ km)
Ceiling: ceiling and visibility are OK
Clouds: unknown
Weather: no significant weather observed at this time

METAR text: RKTN 222100Z 31006KT CAVOK 03/M07 Q1021
Conditions at: RKTN (TAEGU (US/KOR-AF, KR) observed 2100 UTC 22 March 2019
Temperature: 3.0°C (37°F)
Dewpoint: -7.0°C (19°F) [RH = 48%]
Pressure (altimeter): 30.15 inches Hg (1021.0 mb)
Winds: from the NW (310 degrees) at 7 MPH (6 knots; 3.1 m/s)
Visibility: 6 or more miles (10+ km)
Ceiling: ceiling and visibility are OK
Clouds: unknown
Weather: no significant weather observed at this time

Forecast for: RKTN (TAEGU (US/KOR-AF, KR)
Text: TAF RKTN 240500Z 2406/2512 31008KT 9999 SCT040 TX13/2407Z TN02/2421Z
Forecast period: 0600 UTC 24 March 2019 to 1200 UTC 25 March 2019
Forecast type: FROM: standard forecast or significant change
Winds: from the NW (310 degrees) at 9 MPH (8 knots; 4.1 m/s)
Visibility: 6 or more miles 10+ km)
Ceiling: at least 12,000 feet AGL
Clouds: scattered clouds at 4000 feet AGL
Weather: no significant weather forecast for this period